createdAt,value
2017-05-09T00:02:14.246Z,7.78
2017-05-09T00:04:42.659Z,9.64
2017-05-09T00:07:10.948Z,7.57
2017-05-09T00:09:38.757Z,8.57
2017-05-09T00:12:06.551Z,8.70
2017-05-09T00:14:34.417Z,7.85
2017-05-09T00:17:02.377Z,8.82
2017-05-09T00:19:29.952Z,7.48
2017-05-09T00:21:57.499Z,10.55
2017-05-09T00:24:25.058Z,10.00
2017-05-09T00:26:52.897Z,10.37
2017-05-09T00:29:20.420Z,11.77
2017-05-09T00:31:47.960Z,12.93
2017-05-09T00:34:15.625Z,11.10
2017-05-09T00:36:43.124Z,12.13
2017-05-09T00:39:11.416Z,11.68
2017-05-09T00:41:38.926Z,12.10
2017-05-09T00:44:06.473Z,13.00
2017-05-09T00:46:33.976Z,11.97
2017-05-09T00:49:01.558Z,11.63
2017-05-09T00:51:30.666Z,11.30
2017-05-09T00:53:59.440Z,10.58
2017-05-09T00:56:26.942Z,11.80
2017-05-09T00:58:54.828Z,10.50
2017-05-09T01:01:22.492Z,8.85
2017-05-09T01:03:50.351Z,9.35
2017-05-09T01:06:18.616Z,8.52
2017-05-09T01:08:46.385Z,10.80
2017-05-09T01:11:13.908Z,10.22
2017-05-09T01:13:41.412Z,10.10
2017-05-09T01:16:09.306Z,10.90
2017-05-09T01:18:37.153Z,11.23
2017-05-09T01:21:04.697Z,9.30
2017-05-09T01:23:32.229Z,11.30
2017-05-09T01:26:00.828Z,10.93
2017-05-09T01:28:30.240Z,10.50
2017-05-09T01:30:59.590Z,8.87
2017-05-09T01:33:27.909Z,9.22
2017-05-09T01:35:56.229Z,10.73
2017-05-09T01:38:24.493Z,10.40
2017-05-09T01:40:52.103Z,9.95
2017-05-09T01:43:19.682Z,11.43
2017-05-09T01:45:47.968Z,9.35
2017-05-09T01:48:17.216Z,8.30
2017-05-09T01:50:45.552Z,9.57
2017-05-09T01:53:13.093Z,8.45
2017-05-09T01:55:41.487Z,9.93
2017-05-09T01:58:10.575Z,9.08
2017-05-09T02:00:38.856Z,7.73
2017-05-09T02:03:07.149Z,7.33
2017-05-09T02:05:35.504Z,8.07
2017-05-09T02:08:03.040Z,8.32
2017-05-09T02:10:31.367Z,8.07
2017-05-09T02:12:59.936Z,7.35
2017-05-09T02:15:28.255Z,7.32
2017-05-09T02:17:55.805Z,6.53
2017-05-09T02:20:23.548Z,6.92
2017-05-09T02:22:52.065Z,7.23
2017-05-09T02:25:19.935Z,7.58
2017-05-09T02:27:47.466Z,8.92
2017-05-09T02:30:14.994Z,8.38
2017-05-09T02:32:43.277Z,7.08
2017-05-09T02:35:11.640Z,8.83
2017-05-09T02:37:39.944Z,9.50
2017-05-09T02:40:07.464Z,9.98
2017-05-09T02:42:34.983Z,8.58
2017-05-09T02:45:03.243Z,8.32
2017-05-09T02:47:31.599Z,8.58
2017-05-09T02:50:00.091Z,8.02
2017-05-09T02:52:27.643Z,8.28
2017-05-09T02:54:55.908Z,6.87
2017-05-09T02:57:24.233Z,7.65
2017-05-09T02:59:51.731Z,7.65
2017-05-09T03:02:20.114Z,6.85
2017-05-09T03:04:48.397Z,7.83
2017-05-09T03:07:16.177Z,8.13
2017-05-09T03:09:44.432Z,8.67
2017-05-09T03:12:12.752Z,7.73
2017-05-09T03:14:40.247Z,7.80
2017-05-09T03:17:08.545Z,7.63
2017-05-09T03:19:36.812Z,6.37
2017-05-09T03:22:05.106Z,7.68
2017-05-09T03:24:33.395Z,7.40
2017-05-09T03:27:01.237Z,7.30
2017-05-09T03:29:28.756Z,6.70
2017-05-09T03:31:57.392Z,7.13
2017-05-09T03:34:24.904Z,7.90
2017-05-09T03:36:53.197Z,7.98
2017-05-09T03:39:20.717Z,8.07
2017-05-09T03:41:53.166Z,9.53
2017-05-09T03:44:20.858Z,8.82
2017-05-09T03:46:48.407Z,9.25
2017-05-09T03:49:17.792Z,9.70
2017-05-09T03:51:45.436Z,8.60
2017-05-09T03:54:13.872Z,9.35
2017-05-09T03:56:42.139Z,9.43
2017-05-09T03:59:10.495Z,10.20
2017-05-09T04:01:38.718Z,8.52
2017-05-09T04:04:06.278Z,10.93
2017-05-09T04:06:34.777Z,11.43
2017-05-09T04:09:03.205Z,11.67
2017-05-09T04:11:31.536Z,11.67
2017-05-09T04:13:59.059Z,11.02
2017-05-09T04:16:27.646Z,12.42
2017-05-09T04:18:55.431Z,11.07
2017-05-09T04:21:22.984Z,13.27
2017-05-09T04:23:50.518Z,12.35
2017-05-09T04:26:18.254Z,12.67
2017-05-09T04:28:45.839Z,12.73
2017-05-09T04:31:13.732Z,12.87
2017-05-09T04:33:41.435Z,12.30
2017-05-09T04:36:09.735Z,12.87
2017-05-09T04:38:38.056Z,11.03
2017-05-09T04:41:05.631Z,12.03
2017-05-09T04:43:33.466Z,13.83
2017-05-09T04:46:01.742Z,14.27
2017-05-09T04:48:29.303Z,13.60
2017-05-09T04:50:57.616Z,13.45
2017-05-09T04:53:25.928Z,13.80
2017-05-09T04:55:54.342Z,14.30
2017-05-09T04:58:22.794Z,13.02
2017-05-09T05:00:51.134Z,13.52
2017-05-09T05:03:18.707Z,11.72
2017-05-09T05:05:46.419Z,11.65
2017-05-09T05:08:14.218Z,12.13
2017-05-09T05:10:42.786Z,10.60
2017-05-09T05:13:10.559Z,10.32
2017-05-09T05:15:38.915Z,12.67
2017-05-09T05:18:07.979Z,12.25
2017-05-09T05:20:36.272Z,10.73
2017-05-09T05:23:03.788Z,9.42
2017-05-09T05:25:32.071Z,7.32
2017-05-09T05:27:59.664Z,8.42
2017-05-09T05:30:27.176Z,8.47
2017-05-09T05:32:54.669Z,6.50
2017-05-09T05:35:23.044Z,7.17
2017-05-09T05:37:50.907Z,6.42
2017-05-09T05:40:18.946Z,6.12
2017-05-09T05:42:47.252Z,7.63
2017-05-09T05:45:15.848Z,4.98
2017-05-09T05:47:43.331Z,5.60
2017-05-09T05:50:11.955Z,5.47
2017-05-09T05:52:39.605Z,4.75
2017-05-09T05:55:07.169Z,4.03
2017-05-09T05:57:35.039Z,4.58
2017-05-09T06:00:03.426Z,4.58
2017-05-09T06:02:31.043Z,3.75
2017-05-09T06:04:58.632Z,4.72
2017-05-09T06:07:26.660Z,5.12
2017-05-09T06:09:54.979Z,4.02
2017-05-09T06:12:22.626Z,3.37
2017-05-09T06:14:51.388Z,3.93
2017-05-09T06:17:19.674Z,3.15
2017-05-09T06:19:47.194Z,3.75
2017-05-09T06:22:14.797Z,3.10
2017-05-09T06:24:43.348Z,3.25
2017-05-09T06:27:10.915Z,4.05
2017-05-09T06:29:38.451Z,3.73
2017-05-09T06:32:06.060Z,3.62
2017-05-09T06:34:34.340Z,3.37
2017-05-09T06:37:03.095Z,4.58
2017-05-09T06:39:31.491Z,6.35
2017-05-09T06:41:59.399Z,3.98
2017-05-09T06:44:27.023Z,3.78
2017-05-09T06:46:54.596Z,4.18
2017-05-09T06:49:22.124Z,3.70
2017-05-09T06:51:50.043Z,4.20
2017-05-09T06:54:17.937Z,3.53
2017-05-09T06:56:46.320Z,3.98
2017-05-09T06:59:14.652Z,3.93
2017-05-09T07:01:43.013Z,2.90
2017-05-09T07:04:10.619Z,2.77
2017-05-09T07:06:38.931Z,2.97
2017-05-09T07:09:07.444Z,2.93
2017-05-09T07:11:35.699Z,2.50
2017-05-09T07:14:03.347Z,2.70
2017-05-09T07:16:30.835Z,3.03
2017-05-09T07:18:59.109Z,2.98
2017-05-09T07:21:27.496Z,1.80
2017-05-09T07:23:56.871Z,2.30
2017-05-09T07:26:24.729Z,1.97
2017-05-09T07:28:53.069Z,2.03
2017-05-09T07:31:20.891Z,2.00
2017-05-09T07:33:48.776Z,1.23
2017-05-09T07:36:16.296Z,1.85
2017-05-09T07:38:43.804Z,1.67
2017-05-09T07:41:11.387Z,1.68
2017-05-09T07:43:39.662Z,1.85
2017-05-09T07:46:07.200Z,2.03
2017-05-09T07:48:35.592Z,1.52
2017-05-09T07:51:03.924Z,1.78
2017-05-09T07:53:31.416Z,1.72
2017-05-09T07:55:59.044Z,1.98
2017-05-09T07:58:27.814Z,1.60
2017-05-09T08:00:56.148Z,1.97
2017-05-09T08:03:24.538Z,1.90
2017-05-09T08:05:52.196Z,1.58
2017-05-09T08:08:20.956Z,1.45
2017-05-09T08:10:48.514Z,1.45
2017-05-09T08:13:16.199Z,1.25
2017-05-09T08:15:43.744Z,1.48
2017-05-09T08:18:13.724Z,1.50
2017-05-09T08:20:41.243Z,1.23
2017-05-09T08:23:08.887Z,1.82
2017-05-09T08:25:36.527Z,2.07
2017-05-09T08:28:04.028Z,1.72
2017-05-09T08:30:31.567Z,1.42
2017-05-09T08:32:59.836Z,2.23
2017-05-09T08:35:27.355Z,1.55
2017-05-09T08:37:55.655Z,1.12
2017-05-09T08:40:24.369Z,1.10
2017-05-09T08:42:52.691Z,1.33
2017-05-09T08:45:20.980Z,1.15
2017-05-09T08:47:49.235Z,1.48
2017-05-09T08:50:17.773Z,1.02
2017-05-09T08:52:45.259Z,1.52
2017-05-09T08:55:12.803Z,1.30
2017-05-09T08:57:41.064Z,1.38
2017-05-09T09:00:09.671Z,1.13
2017-05-09T09:02:37.167Z,1.20
2017-05-09T09:05:04.968Z,1.28
2017-05-09T09:07:33.328Z,1.35
2017-05-09T09:10:00.867Z,1.37
2017-05-09T09:12:28.568Z,1.45
2017-05-09T09:14:57.134Z,1.20
2017-05-09T09:17:25.729Z,1.13
2017-05-09T09:19:54.005Z,1.55
2017-05-09T09:22:22.279Z,1.50
2017-05-09T09:24:50.132Z,1.62
2017-05-09T09:27:18.916Z,1.32
2017-05-09T09:29:46.495Z,1.30
2017-05-09T09:32:16.203Z,1.35
2017-05-09T09:34:43.747Z,1.38
2017-05-09T09:37:12.320Z,1.52
2017-05-09T09:39:40.596Z,1.13
2017-05-09T09:42:08.160Z,0.90
2017-05-09T09:44:36.463Z,0.98
2017-05-09T09:47:03.954Z,1.20
2017-05-09T09:49:31.763Z,0.90
2017-05-09T09:52:00.078Z,1.30
2017-05-09T09:54:28.513Z,1.00
2017-05-09T09:56:56.768Z,0.90
2017-05-09T09:59:25.112Z,1.52
2017-05-09T10:01:53.363Z,1.30
2017-05-09T10:04:20.903Z,1.42
2017-05-09T10:06:48.430Z,1.10
2017-05-09T10:09:17.073Z,1.38
2017-05-09T10:11:45.368Z,0.95
2017-05-09T10:14:12.919Z,1.30
2017-05-09T10:16:41.462Z,1.45
2017-05-09T10:19:10.896Z,1.28
2017-05-09T10:21:38.699Z,1.13
2017-05-09T10:24:07.044Z,1.10
2017-05-09T10:26:35.455Z,1.18
2017-05-09T10:29:03.730Z,1.02
2017-05-09T10:31:31.332Z,0.90
2017-05-09T10:33:58.895Z,0.88
2017-05-09T10:36:27.254Z,1.17
2017-05-09T10:38:55.195Z,1.20
2017-05-09T10:41:23.456Z,1.13
2017-05-09T10:43:52.667Z,1.55
2017-05-09T10:46:20.224Z,1.35
2017-05-09T10:48:47.829Z,1.28
2017-05-09T10:51:16.092Z,1.52
2017-05-09T10:53:44.417Z,1.00
2017-05-09T10:56:12.850Z,1.12
2017-05-09T10:58:40.417Z,1.25
2017-05-09T11:01:08.750Z,1.02
2017-05-09T11:03:36.267Z,1.30
2017-05-09T11:06:04.519Z,1.08
2017-05-09T11:08:32.960Z,1.27
2017-05-09T11:11:00.703Z,1.88
2017-05-09T11:13:28.280Z,1.27
2017-05-09T11:15:57.499Z,1.35
2017-05-09T11:18:24.990Z,1.15
2017-05-09T11:20:53.322Z,1.28
2017-05-09T11:23:20.847Z,1.33
2017-05-09T11:25:48.615Z,1.22
2017-05-09T11:28:16.136Z,1.23
2017-05-09T11:30:43.697Z,1.23
2017-05-09T11:33:12.043Z,1.28
2017-05-09T11:35:39.556Z,1.35
2017-05-09T11:38:07.173Z,1.57
2017-05-09T11:40:34.743Z,1.33
2017-05-09T11:43:04.183Z,1.12
2017-05-09T11:45:32.647Z,1.00
2017-05-09T11:48:00.163Z,1.63
2017-05-09T11:50:27.983Z,1.37
2017-05-09T11:52:55.545Z,1.60
2017-05-09T11:55:23.088Z,1.47
2017-05-09T11:57:50.649Z,1.30
2017-05-09T12:00:18.156Z,1.18
2017-05-09T12:02:45.720Z,1.20
2017-05-09T12:05:13.992Z,1.22
2017-05-09T12:07:42.276Z,1.38
2017-05-09T12:10:10.543Z,1.83
2017-05-09T12:12:38.064Z,1.70
2017-05-09T12:15:06.360Z,1.60
2017-05-09T12:17:34.269Z,1.50
2017-05-09T12:20:01.755Z,1.52
2017-05-09T12:22:29.271Z,1.05
2017-05-09T12:24:57.068Z,1.32
2017-05-09T12:27:24.612Z,1.28
2017-05-09T12:29:52.268Z,1.32
2017-05-09T12:32:19.884Z,1.33
2017-05-09T12:34:47.371Z,1.20
2017-05-09T12:37:14.896Z,1.60
2017-05-09T12:39:42.447Z,1.67
2017-05-09T12:42:10.041Z,1.68
2017-05-09T12:44:38.291Z,1.82
2017-05-09T12:47:06.740Z,1.35
2017-05-09T12:49:34.768Z,1.43
2017-05-09T12:52:02.366Z,1.42
2017-05-09T12:54:29.963Z,1.52
2017-05-09T12:56:58.297Z,1.27
2017-05-09T12:59:26.549Z,1.20
2017-05-09T13:01:54.119Z,1.32
2017-05-09T13:04:22.424Z,1.97
2017-05-09T13:06:51.671Z,1.53
2017-05-09T13:09:20.644Z,1.30
2017-05-09T13:11:48.965Z,1.58
2017-05-09T13:14:17.230Z,2.30
2017-05-09T13:16:44.801Z,2.43
2017-05-09T13:19:12.466Z,1.73
2017-05-09T13:21:40.004Z,1.70
2017-05-09T13:24:07.647Z,1.35
2017-05-09T13:26:35.248Z,1.78
2017-05-09T13:29:02.782Z,1.67
2017-05-09T13:31:30.588Z,1.95
2017-05-09T13:33:58.858Z,2.53
2017-05-09T13:36:26.380Z,1.82
2017-05-09T13:38:54.247Z,2.88
2017-05-09T13:41:22.008Z,1.82
2017-05-09T13:43:49.608Z,1.67
2017-05-09T13:46:17.883Z,1.67
2017-05-09T13:48:45.599Z,2.12
2017-05-09T13:51:13.131Z,1.58
2017-05-09T13:53:40.824Z,1.65
2017-05-09T13:56:08.509Z,1.82
2017-05-09T13:58:37.983Z,2.62
2017-05-09T14:01:05.476Z,2.27
2017-05-09T14:03:33.055Z,2.10
2017-05-09T14:06:01.338Z,2.27
2017-05-09T14:08:28.949Z,1.77
2017-05-09T14:10:56.456Z,1.98
2017-05-09T14:13:25.075Z,1.90
2017-05-09T14:15:53.653Z,2.10
2017-05-09T14:18:21.167Z,1.97
2017-05-09T14:20:49.752Z,3.38
2017-05-09T14:23:17.395Z,2.22
2017-05-09T14:25:45.927Z,1.98
2017-05-09T14:28:14.511Z,2.17
2017-05-09T14:30:42.507Z,1.80
2017-05-09T14:33:10.467Z,1.70
2017-05-09T14:35:38.034Z,1.73
2017-05-09T14:38:05.690Z,2.13
2017-05-09T14:40:33.234Z,2.18
2017-05-09T14:43:01.179Z,2.12
2017-05-09T14:45:30.493Z,2.20
2017-05-09T14:47:57.991Z,1.82
2017-05-09T14:50:26.344Z,1.75
2017-05-09T14:52:54.296Z,1.82
2017-05-09T14:55:21.815Z,1.73
2017-05-09T14:57:49.360Z,2.03
2017-05-09T15:00:17.678Z,2.35
2017-05-09T15:02:45.159Z,1.92
2017-05-09T15:05:13.828Z,2.10
2017-05-09T15:07:42.089Z,2.22
2017-05-09T15:10:09.956Z,2.00
2017-05-09T15:12:37.624Z,2.13
2017-05-09T15:15:06.486Z,1.72
2017-05-09T15:17:34.000Z,1.98
2017-05-09T15:20:01.660Z,1.93
2017-05-09T15:22:30.821Z,1.97
2017-05-09T15:24:58.871Z,1.82
2017-05-09T15:27:26.783Z,2.20
2017-05-09T15:29:54.323Z,1.87
2017-05-09T15:32:22.911Z,2.12
2017-05-09T15:34:50.457Z,1.73
2017-05-09T15:37:19.141Z,2.02
2017-05-09T15:39:46.727Z,2.12
2017-05-09T15:42:14.328Z,2.00
2017-05-09T15:44:42.680Z,2.12
2017-05-09T15:47:14.895Z,1.92
2017-05-09T15:49:42.568Z,2.30
2017-05-09T15:52:10.289Z,2.17
2017-05-09T15:54:38.591Z,2.13
2017-05-09T15:57:06.172Z,2.10
2017-05-09T15:59:34.116Z,1.68
2017-05-09T16:02:01.713Z,2.62
2017-05-09T16:04:29.973Z,1.85
2017-05-09T16:06:58.629Z,2.27
2017-05-09T16:09:26.123Z,1.95
2017-05-09T16:11:54.683Z,2.13
2017-05-09T16:14:22.952Z,2.27
2017-05-09T16:16:51.519Z,1.80
2017-05-09T16:19:19.195Z,1.93
2017-05-09T16:21:46.680Z,2.00
2017-05-09T16:24:14.503Z,2.10
2017-05-09T16:26:42.011Z,2.32
2017-05-09T16:29:10.674Z,2.22
2017-05-09T16:31:38.159Z,4.02
2017-05-09T16:34:06.847Z,2.37
2017-05-09T16:36:35.100Z,2.73
2017-05-09T16:39:02.652Z,2.52
2017-05-09T16:41:31.037Z,2.58
2017-05-09T16:46:35.719Z,2.20
2017-05-09T16:49:04.311Z,2.00
2017-05-09T16:51:31.801Z,2.20
2017-05-09T16:54:01.029Z,3.05
2017-05-09T16:56:29.324Z,2.37
2017-05-09T16:58:57.671Z,2.65
2017-05-09T17:01:26.049Z,2.27
2017-05-09T17:03:53.873Z,2.15
2017-05-09T17:06:21.365Z,2.18
2017-05-09T17:08:50.498Z,2.05
2017-05-09T17:11:18.835Z,2.10
2017-05-09T17:13:47.173Z,2.26
2017-05-09T17:16:14.760Z,1.98
2017-05-09T17:18:42.650Z,2.40
2017-05-09T17:21:10.247Z,2.57
2017-05-09T17:23:37.775Z,2.57
2017-05-09T17:26:05.270Z,2.10
2017-05-09T17:28:32.955Z,2.13
2017-05-09T17:31:00.523Z,2.72
2017-05-09T17:33:28.804Z,1.92
2017-05-09T17:35:57.328Z,2.45
2017-05-09T17:38:24.815Z,2.07
2017-05-09T17:40:54.492Z,2.32
2017-05-09T17:43:22.916Z,2.00
2017-05-09T17:45:51.215Z,2.52
2017-05-09T17:48:18.831Z,2.50
2017-05-09T17:50:46.362Z,2.45
2017-05-09T17:53:13.951Z,3.18
2017-05-09T17:55:41.468Z,2.83
2017-05-09T17:58:09.014Z,2.55
2017-05-09T18:00:37.307Z,2.52
2017-05-09T18:03:04.855Z,3.08
2017-05-09T18:05:32.339Z,2.35
2017-05-09T18:08:00.182Z,3.00
2017-05-09T18:10:27.972Z,2.88
2017-05-09T18:12:55.489Z,2.85
2017-05-09T18:15:24.907Z,2.75
2017-05-09T18:17:52.558Z,2.28
2017-05-09T18:20:20.859Z,3.18
2017-05-09T18:22:48.465Z,3.10
2017-05-09T18:25:16.743Z,2.43
2017-05-09T18:27:44.274Z,2.53
2017-05-09T18:30:11.911Z,2.33
2017-05-09T18:32:40.236Z,2.40
2017-05-09T18:35:08.328Z,2.60
2017-05-09T18:37:36.103Z,2.93
2017-05-09T18:40:03.610Z,2.82
2017-05-09T18:42:32.706Z,3.20
2017-05-09T18:45:00.959Z,2.48
2017-05-09T18:47:28.672Z,2.93
2017-05-09T18:49:56.167Z,2.92
2017-05-09T18:52:23.679Z,2.75
2017-05-09T18:54:52.052Z,2.98
2017-05-09T18:57:19.738Z,3.18
2017-05-09T18:59:47.335Z,3.85
2017-05-09T19:02:14.895Z,3.37
2017-05-09T19:04:43.356Z,3.50
2017-05-09T19:07:16.610Z,4.23
2017-05-09T19:09:44.651Z,3.85
2017-05-09T19:12:12.509Z,4.00
2017-05-09T19:14:41.118Z,3.72
2017-05-09T19:17:09.596Z,4.40
2017-05-09T19:19:37.216Z,5.90
2017-05-09T19:22:05.058Z,4.57
2017-05-09T19:24:33.490Z,5.17
2017-05-09T19:27:01.986Z,4.08
2017-05-09T19:29:29.767Z,4.47
2017-05-09T19:31:58.095Z,5.03
2017-05-09T19:34:26.850Z,5.73
2017-05-09T19:36:55.405Z,5.73
2017-05-09T19:39:24.094Z,6.27
2017-05-09T19:41:52.526Z,6.52
2017-05-09T19:44:21.385Z,6.50
2017-05-09T19:46:49.819Z,10.58
2017-05-09T19:49:18.271Z,9.33
2017-05-09T19:51:46.932Z,8.18
2017-05-09T19:54:14.514Z,7.05
2017-05-09T19:56:42.967Z,9.32
2017-05-09T19:59:11.001Z,9.17
2017-05-09T20:01:38.756Z,9.45
2017-05-09T20:04:08.411Z,8.97
2017-05-09T20:06:36.118Z,8.85
2017-05-09T20:09:04.012Z,8.90
2017-05-09T20:11:31.821Z,8.88
2017-05-09T20:13:59.419Z,8.37
2017-05-09T20:16:30.846Z,8.02
2017-05-09T20:19:00.508Z,7.18
2017-05-09T20:21:29.398Z,7.15
2017-05-09T20:23:58.549Z,7.98
2017-05-09T20:26:28.566Z,7.07
2017-05-09T20:28:58.358Z,7.42
2017-05-09T20:31:26.837Z,6.90
2017-05-09T20:33:55.337Z,6.77
2017-05-09T20:36:25.998Z,7.50
2017-05-09T20:38:55.168Z,6.97
2017-05-09T20:41:23.432Z,5.92
2017-05-09T20:43:51.956Z,7.22
2017-05-09T20:46:19.471Z,7.12
2017-05-09T20:48:48.064Z,7.37
2017-05-09T20:51:16.676Z,6.72
2017-05-09T20:53:44.655Z,7.23
2017-05-09T20:56:12.256Z,7.87
2017-05-09T20:58:39.748Z,7.42
2017-05-09T21:01:07.313Z,7.32
2017-05-09T21:03:36.685Z,9.02
2017-05-09T21:06:04.271Z,8.92
2017-05-09T21:08:31.937Z,8.98
2017-05-09T21:11:00.439Z,7.38
2017-05-09T21:13:28.723Z,7.55
2017-05-09T21:15:56.981Z,6.90
2017-05-09T21:18:25.265Z,7.08
2017-05-09T21:20:53.876Z,8.17
2017-05-09T21:23:22.207Z,7.33
2017-05-09T21:25:49.753Z,7.17
2017-05-09T21:28:17.270Z,7.43
2017-05-09T21:30:44.801Z,6.98
2017-05-09T21:33:13.111Z,7.23
2017-05-09T21:35:40.689Z,8.60
2017-05-09T21:38:08.253Z,9.30
2017-05-09T21:40:36.096Z,9.12
2017-05-09T21:43:04.779Z,9.68
2017-05-09T21:45:32.268Z,8.47
2017-05-09T21:47:59.824Z,7.98
2017-05-09T21:50:27.856Z,9.93
2017-05-09T21:52:56.145Z,8.78
2017-05-09T21:55:23.887Z,8.38
2017-05-09T21:57:51.433Z,8.27
2017-05-09T22:00:19.023Z,7.72
2017-05-09T22:02:47.325Z,7.83
2017-05-09T22:05:14.909Z,8.48
2017-05-09T22:07:43.219Z,7.48
2017-05-09T22:10:11.777Z,7.80
2017-05-09T22:12:40.156Z,8.43
2017-05-09T22:15:09.408Z,7.55
2017-05-09T22:17:38.439Z,7.28
2017-05-09T22:20:06.231Z,7.50
2017-05-09T22:22:34.096Z,7.37
2017-05-09T22:25:01.633Z,8.72
2017-05-09T22:27:29.136Z,7.35
2017-05-09T22:29:56.775Z,7.20
2017-05-09T22:32:24.409Z,7.12
2017-05-09T22:34:52.696Z,6.48
2017-05-09T22:37:20.187Z,6.43
2017-05-09T22:39:47.734Z,5.82
2017-05-09T22:42:15.251Z,5.67
2017-05-09T22:44:43.596Z,5.82
2017-05-09T22:47:11.091Z,6.02
2017-05-09T22:49:39.415Z,7.02
2017-05-09T22:52:07.608Z,6.80
2017-05-09T22:54:35.980Z,8.10
2017-05-09T22:57:04.236Z,7.23
2017-05-09T22:59:33.591Z,7.12
2017-05-09T23:02:01.189Z,7.07
2017-05-09T23:04:28.743Z,6.98
2017-05-09T23:06:56.303Z,7.45
2017-05-09T23:09:23.834Z,7.92
2017-05-09T23:11:51.332Z,7.58
2017-05-09T23:14:20.405Z,7.43
2017-05-09T23:16:48.683Z,7.00
2017-05-09T23:19:16.660Z,7.55
2017-05-09T23:21:44.312Z,7.73
2017-05-09T23:24:12.056Z,7.20
2017-05-09T23:26:40.435Z,7.02
2017-05-09T23:29:07.965Z,7.02
2017-05-09T23:31:35.529Z,8.13
2017-05-09T23:34:04.055Z,8.52
2017-05-09T23:36:33.317Z,7.52
2017-05-09T23:39:02.680Z,8.12
2017-05-09T23:41:31.112Z,7.32
2017-05-09T23:43:58.887Z,8.30
2017-05-09T23:46:26.556Z,8.37
2017-05-09T23:48:54.061Z,8.57
2017-05-09T23:51:21.632Z,7.50
2017-05-09T23:53:49.177Z,7.58
2017-05-09T23:56:16.695Z,7.52
